Coral Favia — PHKM — position and weather

sailwx.info

Track history (hours):
 
Tides and Currents Weather Stations Pressure Air Temp Water Temp Dewpoint Dewpoint Depression Visibility Wind Speed Wind Dir Waves Ship Positions

Coral Favia

Last reported at 2015-Apr-19 17:22 UTC. Time now 2015-Apr-19 17:40 UTC.
Position N 38°15' E 000°05'.

Length 100 m; beam 17 m.

Type: Tanker. MMSI: 244627000.

Date/timePositionNaut miles runAvg speedWind from/ knotsBaromVisibWave heightAir tempDewpointWater temp
2015-Apr-19 17:22N 38°15' E 000°05'1113.4
2015-Apr-19 16:33N 38°06' W 000°03'1312.9
2015-Apr-19 15:33N 37°55' W 000°11'1312.8
2015-Apr-19 14:33N 37°45' W 000°21'1313.2
2015-Apr-19 13:33N 37°34' W 000°30'1212.3
2015-Apr-19 12:33N 37°31' W 000°45'10 0.5
2015-Apr-18 16:33N 37°34' W 000°57'2 1.7
2015-Apr-18 15:33N 37°33' W 000°59'7 6.7
2015-Apr-18 14:33N 37°32' W 000°51'1313.3
2015-Apr-18 13:34N 37°34' W 000°35'1414.4
2015-Apr-18 12:34N 37°44' W 000°22'1414.4
2015-Apr-18 11:34N 37°55' W 000°10'1414.2
2015-Apr-18 10:34N 38°06' E 000°02'3014.1
2015-Apr-18 08:25N 38°28' E 000°28'6014.0
2015-Apr-18 04:07N 39°11' E 001°22'814.1
2015-Apr-18 03:32N 39°16' E 001°31'1414.2
2015-Apr-18 02:33N 39°24' E 001°45'1413.7
2015-Apr-18 01:33N 39°32' E 001°60'1413.7
2015-Apr-18 00:31N 39°41' E 002°14'1313.6
2015-Apr-17 23:33N 39°48' E 002°28'1414.1
2015-Apr-17 22:33N 39°56' E 002°43'2511.9
2015-Apr-17 20:27N 39°55' E 003°16'8 8.6
2015-Apr-17 19:33N 39°50' E 003°08'0 0.0
2015-Apr-16 15:33N 39°50' E 003°09'1 0.6
2015-Apr-16 14:33N 39°49' E 003°09'0 0.0
2015-Apr-16 13:33N 39°49' E 003°09'0 0.0
2015-Apr-16 12:33N 39°49' E 003°09'6 5.7
2015-Apr-16 11:33N 39°52' E 003°15'20 9.8
2015-Apr-16 09:33N 39°59' E 002°52'1413.5
2015-Apr-16 08:33N 39°52' E 002°36'1413.7
2015-Apr-16 07:33N 39°44' E 002°22'1414.0
2015-Apr-16 06:33N 39°36' E 002°07'1414.1
2015-Apr-16 05:33N 39°28' E 001°52'1414.0
2015-Apr-16 04:33N 39°20' E 001°37'9413.5
2015-Apr-15 21:33N 38°13' E 000°12'1313.1
2015-Apr-15 20:33N 38°03' E 000°01'1512.8
2015-Apr-15 19:21N 37°51' W 000°12'1012.7
2015-Apr-15 18:33N 37°43' W 000°20'1312.8
2015-Apr-15 17:33N 37°34' W 000°31'1110.5
2015-Apr-15 16:33N 37°31' W 000°43'1210.7
2015-Apr-15 15:28N 37°33' W 000°58'2 0.1
2015-Apr-14 20:22N 37°34' W 001°00'2 2.9
2015-Apr-14 19:32N 37°32' W 001°02'1313.3
2015-Apr-14 18:33N 37°32' W 000°46'1313.4
2015-Apr-14 17:33N 37°38' W 000°31'1414.4
2015-Apr-14 16:33N 37°50' W 000°21'1514.5
2015-Apr-14 15:33N 38°02' W 000°11'3014.5
2015-Apr-14 13:29N 38°27' E 000°10'4514.4
2015-Apr-14 10:19N 39°08' E 000°36'5514.7
2015-Apr-14 06:33N 40°00' E 000°59'1414.1
2015-Apr-14 05:33N 40°14' E 001°01'1414.1
2015-Apr-14 04:33N 40°28' E 001°05'1414.2
2015-Apr-14 03:33N 40°42' E 001°08'1414.4
2015-Apr-14 02:33N 40°56' E 001°11'1010.1
2015-Apr-14 01:33N 41°06' E 001°14'0 0.0
2015-Apr-13 13:29N 41°06' E 001°14'1 0.1
2015-Apr-13 08:28N 41°06' E 001°13'7 7.6
2015-Apr-13 07:33N 40°59' E 001°11'1211.9
2015-Apr-13 06:33N 40°47' E 001°09'1413.1
2015-Apr-13 05:30N 40°33' E 001°05'1313.1
2015-Apr-13 04:31N 40°21' E 001°03'1313.1
2015-Apr-13 03:32N 40°08' E 001°00'5312.9
2015-Apr-12 23:24N 39°17' E 000°42'7312.3
2015-Apr-12 17:30N 38°11' E 000°02'1111.4
2015-Apr-12 16:30N 38°02' W 000°07'1310.9
2015-Apr-12 15:16N 37°51' W 000°16'810.8
2015-Apr-12 14:33N 37°44' W 000°21'1111.0
2015-Apr-12 13:33N 37°35' W 000°29'1010.4
2015-Apr-12 12:33N 37°28' W 000°38'1110.6
2015-Apr-12 11:33N 37°21' W 000°48'1110.3
2015-Apr-12 10:29N 37°13' W 000°59'21811.5
2015-Apr-11 15:33N 35°59' W 005°13'1312.9
2015-Apr-11 14:33N 35°57' W 005°29'27511.0
2015-Apr-10 13:33N 38°37' W 010°11'1313.5
2015-Apr-10 12:33N 38°51' W 010°12'1413.7
2015-Apr-10 11:33N 39°05' W 010°12'1513.4
2015-Apr-10 10:24N 39°20' W 010°12'  
Track history (hours):
 
Tides and Currents Weather Stations Pressure Air Temp Water Temp Dewpoint Dewpoint Depression Visibility Wind Speed Wind Dir Waves Ship Positions

Coral Favia

Last reported at 2015-Apr-19 17:22 UTC. Time now 2015-Apr-19 17:40 UTC.
Position N 38°15' E 000°05'.

Length 100 m; beam 17 m.

Type: Tanker. MMSI: 244627000.

Date/timePositionNaut miles runAvg speedWind from/ knotsBaromVisibWave heightAir tempDewpointWater temp
2015-Apr-19 17:22N 38°15' E 000°05'1113.4
2015-Apr-19 16:33N 38°06' W 000°03'1312.9
2015-Apr-19 15:33N 37°55' W 000°11'1312.8
2015-Apr-19 14:33N 37°45' W 000°21'1313.2
2015-Apr-19 13:33N 37°34' W 000°30'1212.3
2015-Apr-19 12:33N 37°31' W 000°45'10 0.5
2015-Apr-18 16:33N 37°34' W 000°57'2 1.7
2015-Apr-18 15:33N 37°33' W 000°59'7 6.7
2015-Apr-18 14:33N 37°32' W 000°51'1313.3
2015-Apr-18 13:34N 37°34' W 000°35'1414.4
2015-Apr-18 12:34N 37°44' W 000°22'1414.4
2015-Apr-18 11:34N 37°55' W 000°10'1414.2
2015-Apr-18 10:34N 38°06' E 000°02'3014.1
2015-Apr-18 08:25N 38°28' E 000°28'6014.0
2015-Apr-18 04:07N 39°11' E 001°22'814.1
2015-Apr-18 03:32N 39°16' E 001°31'1414.2
2015-Apr-18 02:33N 39°24' E 001°45'1413.7
2015-Apr-18 01:33N 39°32' E 001°60'1413.7
2015-Apr-18 00:31N 39°41' E 002°14'1313.6
2015-Apr-17 23:33N 39°48' E 002°28'1414.1
2015-Apr-17 22:33N 39°56' E 002°43'2511.9
2015-Apr-17 20:27N 39°55' E 003°16'8 8.6
2015-Apr-17 19:33N 39°50' E 003°08'0 0.0
2015-Apr-16 15:33N 39°50' E 003°09'1 0.6
2015-Apr-16 14:33N 39°49' E 003°09'0 0.0
2015-Apr-16 13:33N 39°49' E 003°09'0 0.0
2015-Apr-16 12:33N 39°49' E 003°09'6 5.7
2015-Apr-16 11:33N 39°52' E 003°15'20 9.8
2015-Apr-16 09:33N 39°59' E 002°52'1413.5
2015-Apr-16 08:33N 39°52' E 002°36'1413.7
2015-Apr-16 07:33N 39°44' E 002°22'1414.0
2015-Apr-16 06:33N 39°36' E 002°07'1414.1
2015-Apr-16 05:33N 39°28' E 001°52'1414.0
2015-Apr-16 04:33N 39°20' E 001°37'9413.5
2015-Apr-15 21:33N 38°13' E 000°12'1313.1
2015-Apr-15 20:33N 38°03' E 000°01'1512.8
2015-Apr-15 19:21N 37°51' W 000°12'1012.7
2015-Apr-15 18:33N 37°43' W 000°20'1312.8
2015-Apr-15 17:33N 37°34' W 000°31'1110.5
2015-Apr-15 16:33N 37°31' W 000°43'1210.7
2015-Apr-15 15:28N 37°33' W 000°58'2 0.1
2015-Apr-14 20:22N 37°34' W 001°00'2 2.9
2015-Apr-14 19:32N 37°32' W 001°02'1313.3
2015-Apr-14 18:33N 37°32' W 000°46'1313.4
2015-Apr-14 17:33N 37°38' W 000°31'1414.4
2015-Apr-14 16:33N 37°50' W 000°21'1514.5
2015-Apr-14 15:33N 38°02' W 000°11'3014.5
2015-Apr-14 13:29N 38°27' E 000°10'4514.4
2015-Apr-14 10:19N 39°08' E 000°36'5514.7
2015-Apr-14 06:33N 40°00' E 000°59'1414.1
2015-Apr-14 05:33N 40°14' E 001°01'1414.1
2015-Apr-14 04:33N 40°28' E 001°05'1414.2
2015-Apr-14 03:33N 40°42' E 001°08'1414.4
2015-Apr-14 02:33N 40°56' E 001°11'1010.1
2015-Apr-14 01:33N 41°06' E 001°14'0 0.0
2015-Apr-13 13:29N 41°06' E 001°14'1 0.1
2015-Apr-13 08:28N 41°06' E 001°13'7 7.6
2015-Apr-13 07:33N 40°59' E 001°11'1211.9
2015-Apr-13 06:33N 40°47' E 001°09'1413.1
2015-Apr-13 05:30N 40°33' E 001°05'1313.1
2015-Apr-13 04:31N 40°21' E 001°03'1313.1
2015-Apr-13 03:32N 40°08' E 001°00'5312.9
2015-Apr-12 23:24N 39°17' E 000°42'7312.3
2015-Apr-12 17:30N 38°11' E 000°02'1111.4
2015-Apr-12 16:30N 38°02' W 000°07'1310.9
2015-Apr-12 15:16N 37°51' W 000°16'810.8
2015-Apr-12 14:33N 37°44' W 000°21'1111.0
2015-Apr-12 13:33N 37°35' W 000°29'1010.4
2015-Apr-12 12:33N 37°28' W 000°38'1110.6
2015-Apr-12 11:33N 37°21' W 000°48'1110.3
2015-Apr-12 10:29N 37°13' W 000°59'21811.5
2015-Apr-11 15:33N 35°59' W 005°13'1312.9
2015-Apr-11 14:33N 35°57' W 005°29'27511.0
2015-Apr-10 13:33N 38°37' W 010°11'1313.5
2015-Apr-10 12:33N 38°51' W 010°12'1413.7
2015-Apr-10 11:33N 39°05' W 010°12'1513.4
2015-Apr-10 10:24N 39°20' W 010°12'  

Dump ship's entire track history